sensor_id;sensor_type;location;lat;lon;timestamp;pressure;altitude;pressure_sealevel;temperature;humidity
62708;BME280;48769;51.624;5.886;2022-07-23T00:00:08;101724.25;;;18.09;100.00
62708;BME280;48769;51.624;5.886;2022-07-23T00:02:34;101711.94;;;18.06;100.00
62708;BME280;48769;51.624;5.886;2022-07-23T00:04:59;101712.28;;;18.02;100.00
62708;BME280;48769;51.624;5.886;2022-07-23T00:07:25;101709.81;;;17.98;100.00
62708;BME280;48769;51.624;5.886;2022-07-23T00:09:50;101703.91;;;17.93;100.00
62708;BME280;48769;51.624;5.886;2022-07-23T00:12:16;101707.56;;;17.92;100.00
62708;BME280;48769;51.624;5.886;2022-07-23T00:14:41;101707.00;;;17.87;100.00
62708;BME280;48769;51.624;5.886;2022-07-23T00:17:07;101708.31;;;17.82;100.00
62708;BME280;48769;51.624;5.886;2022-07-23T00:19:32;101707.66;;;17.78;100.00
62708;BME280;48769;51.624;5.886;2022-07-23T00:21:58;101713.19;;;17.75;100.00
62708;BME280;48769;51.624;5.886;2022-07-23T00:24:23;101709.75;;;17.73;100.00
62708;BME280;48769;51.624;5.886;2022-07-23T00:26:48;101709.94;;;17.70;100.00
62708;BME280;48769;51.624;5.886;2022-07-23T00:29:13;101702.25;;;17.65;100.00
62708;BME280;48769;51.624;5.886;2022-07-23T00:31:39;101703.41;;;17.61;100.00
62708;BME280;48769;51.624;5.886;2022-07-23T00:34:04;101702.03;;;17.56;100.00
62708;BME280;48769;51.624;5.886;2022-07-23T00:36:29;101699.56;;;17.52;100.00
62708;BME280;48769;51.624;5.886;2022-07-23T00:38:56;101700.72;;;17.48;100.00
62708;BME280;48769;51.624;5.886;2022-07-23T00:41:22;101699.19;;;17.44;100.00
62708;BME280;48769;51.624;5.886;2022-07-23T00:43:47;101690.44;;;17.42;100.00
62708;BME280;48769;51.624;5.886;2022-07-23T00:46:12;101698.47;;;17.42;100.00
62708;BME280;48769;51.624;5.886;2022-07-23T00:48:38;101703.81;;;17.42;100.00
62708;BME280;48769;51.624;5.886;2022-07-23T00:51:03;101702.94;;;17.42;100.00
62708;BME280;48769;51.624;5.886;2022-07-23T00:53:29;101708.38;;;17.40;100.00
62708;BME280;48769;51.624;5.886;2022-07-23T00:55:55;101696.94;;;17.38;100.00
62708;BME280;48769;51.624;5.886;2022-07-23T00:58:21;101696.19;;;17.36;100.00
62708;BME280;48769;51.624;5.886;2022-07-23T01:00:46;101699.47;;;17.27;100.00
62708;BME280;48769;51.624;5.886;2022-07-23T01:03:12;101704.06;;;17.25;100.00
62708;BME280;48769;51.624;5.886;2022-07-23T01:05:37;101711.13;;;17.26;100.00
62708;BME280;48769;51.624;5.886;2022-07-23T01:08:05;101711.13;;;17.26;100.00
62708;BME280;48769;51.624;5.886;2022-07-23T01:10:30;101708.47;;;17.26;100.00
62708;BME280;48769;51.624;5.886;2022-07-23T01:13:04;101708.53;;;17.24;100.00
62708;BME280;48769;51.624;5.886;2022-07-23T01:15:30;101710.56;;;17.21;100.00
62708;BME280;48769;51.624;5.886;2022-07-23T01:17:56;101700.84;;;17.20;100.00
62708;BME280;48769;51.624;5.886;2022-07-23T01:20:22;101706.38;;;17.17;100.00
62708;BME280;48769;51.624;5.886;2022-07-23T01:22:47;101700.38;;;17.13;100.00
62708;BME280;48769;51.624;5.886;2022-07-23T01:25:13;101702.28;;;17.11;100.00
62708;BME280;48769;51.624;5.886;2022-07-23T01:27:39;101694.59;;;17.07;100.00
62708;BME280;48769;51.624;5.886;2022-07-23T01:30:06;101691.16;;;17.04;100.00
62708;BME280;48769;51.624;5.886;2022-07-23T01:32:32;101687.72;;;17.02;100.00
62708;BME280;48769;51.624;5.886;2022-07-23T01:34:57;101682.59;;;16.99;100.00
62708;BME280;48769;51.624;5.886;2022-07-23T01:37:22;101683.75;;;16.95;100.00
62708;BME280;48769;51.624;5.886;2022-07-23T01:39:48;101693.88;;;16.90;100.00
62708;BME280;48769;51.624;5.886;2022-07-23T01:42:13;101683.59;;;16.84;100.00
62708;BME280;48769;51.624;5.886;2022-07-23T01:44:39;101686.34;;;16.82;100.00
62708;BME280;48769;51.624;5.886;2022-07-23T01:47:04;101685.69;;;16.79;100.00
62708;BME280;48769;51.624;5.886;2022-07-23T01:49:29;101682.53;;;16.72;100.00
62708;BME280;48769;51.624;5.886;2022-07-23T01:51:55;101687.09;;;16.70;100.00
62708;BME280;48769;51.624;5.886;2022-07-23T01:54:28;101685.50;;;16.68;100.00
62708;BME280;48769;51.624;5.886;2022-07-23T01:56:53;101675.78;;;16.67;100.00
62708;BME280;48769;51.624;5.886;2022-07-23T01:59:19;101689.28;;;16.64;100.00
62708;BME280;48769;51.624;5.886;2022-07-23T02:01:45;101686.81;;;16.60;100.00
62708;BME280;48769;51.624;5.886;2022-07-23T02:04:11;101691.50;;;16.57;100.00
62708;BME280;48769;51.624;5.886;2022-07-23T02:06:36;101693.63;;;16.52;100.00
62708;BME280;48769;51.624;5.886;2022-07-23T02:09:02;101691.22;;;16.47;100.00
62708;BME280;48769;51.624;5.886;2022-07-23T02:11:27;101686.31;;;16.41;100.00
62708;BME280;48769;51.624;5.886;2022-07-23T02:13:52;101689.91;;;16.40;100.00
62708;BME280;48769;51.624;5.886;2022-07-23T02:16:18;101692.56;;;16.40;100.00
62708;BME280;48769;51.624;5.886;2022-07-23T02:18:43;101688.19;;;16.39;100.00
62708;BME280;48769;51.624;5.886;2022-07-23T02:21:08;101684.00;;;16.35;100.00
62708;BME280;48769;51.624;5.886;2022-07-23T02:23:33;101683.44;;;16.30;100.00
62708;BME280;48769;51.624;5.886;2022-07-23T02:25:59;101679.25;;;16.26;100.00
62708;BME280;48769;51.624;5.886;2022-07-23T02:28:24;101681.06;;;16.25;100.00
62708;BME280;48769;51.624;5.886;2022-07-23T02:30:50;101677.44;;;16.26;100.00
62708;BME280;48769;51.624;5.886;2022-07-23T02:33:15;101674.84;;;16.25;100.00
62708;BME280;48769;51.624;5.886;2022-07-23T02:35:41;101675.06;;;16.22;100.00
62708;BME280;48769;51.624;5.886;2022-07-23T02:38:06;101691.06;;;16.22;100.00
62708;BME280;48769;51.624;5.886;2022-07-23T02:40:31;101684.84;;;16.21;100.00
62708;BME280;48769;51.624;5.886;2022-07-23T02:42:57;101685.91;;;16.19;100.00
62708;BME280;48769;51.624;5.886;2022-07-23T02:45:22;101679.69;;;16.18;100.00
62708;BME280;48769;51.624;5.886;2022-07-23T02:47:47;101678.84;;;16.18;100.00
62708;BME280;48769;51.624;5.886;2022-07-23T02:50:13;101678.00;;;16.17;100.00
62708;BME280;48769;51.624;5.886;2022-07-23T02:52:38;101680.78;;;16.16;100.00
62708;BME280;48769;51.624;5.886;2022-07-23T02:55:05;101682.47;;;16.17;100.00
62708;BME280;48769;51.624;5.886;2022-07-23T02:57:30;101678.19;;;16.14;100.00
62708;BME280;48769;51.624;5.886;2022-07-23T02:59:55;101677.53;;;16.10;100.00
62708;BME280;48769;51.624;5.886;2022-07-23T03:02:21;101676.84;;;16.07;100.00
62708;BME280;48769;51.624;5.886;2022-07-23T03:04:46;101683.16;;;16.06;100.00
62708;BME280;48769;51.624;5.886;2022-07-23T03:07:12;101680.38;;;16.07;100.00
62708;BME280;48769;51.624;5.886;2022-07-23T03:09:37;101676.00;;;16.06;100.00
62708;BME280;48769;51.624;5.886;2022-07-23T03:12:02;101677.91;;;16.04;100.00
62708;BME280;48769;51.624;5.886;2022-07-23T03:14:28;101680.66;;;16.03;100.00
62708;BME280;48769;51.624;5.886;2022-07-23T03:16:53;101679.13;;;15.99;100.00
62708;BME280;48769;51.624;5.886;2022-07-23T03:19:19;101694.25;;;15.98;100.00
62708;BME280;48769;51.624;5.886;2022-07-23T03:21:45;101691.69;;;15.97;100.00
62708;BME280;48769;51.624;5.886;2022-07-23T03:24:10;101694.38;;;15.97;100.00
62708;BME280;48769;51.624;5.886;2022-07-23T03:26:36;101702.34;;;15.97;100.00
62708;BME280;48769;51.624;5.886;2022-07-23T03:29:02;101700.66;;;15.96;100.00
62708;BME280;48769;51.624;5.886;2022-07-23T03:31:29;101705.09;;;15.95;100.00
62708;BME280;48769;51.624;5.886;2022-07-23T03:33:55;101713.28;;;15.92;100.00
62708;BME280;48769;51.624;5.886;2022-07-23T03:36:20;101701.88;;;15.90;100.00
62708;BME280;48769;51.624;5.886;2022-07-23T03:38:46;101701.88;;;15.90;100.00
62708;BME280;48769;51.624;5.886;2022-07-23T03:41:11;101696.53;;;15.90;100.00
62708;BME280;48769;51.624;5.886;2022-07-23T03:43:36;101696.53;;;15.90;100.00
62708;BME280;48769;51.624;5.886;2022-07-23T03:46:02;101697.56;;;15.87;100.00
62708;BME280;48769;51.624;5.886;2022-07-23T03:48:27;101703.09;;;15.84;100.00
62708;BME280;48769;51.624;5.886;2022-07-23T03:50:52;101702.25;;;15.84;100.00
62708;BME280;48769;51.624;5.886;2022-07-23T03:53:18;101704.91;;;15.84;100.00
62708;BME280;48769;51.624;5.886;2022-07-23T03:55:43;101695.19;;;15.83;100.00
62708;BME280;48769;51.624;5.886;2022-07-23T03:58:08;101697.94;;;15.81;100.00
62708;BME280;48769;51.624;5.886;2022-07-23T04:00:34;101698.06;;;15.80;100.00
62708;BME280;48769;51.624;5.886;2022-07-23T04:02:59;101690.25;;;15.77;100.00
62708;BME280;48769;51.624;5.886;2022-07-23T04:05:24;101685.84;;;15.76;100.00
62708;BME280;48769;51.624;5.886;2022-07-23T04:07:50;101687.66;;;15.75;100.00
62708;BME280;48769;51.624;5.886;2022-07-23T04:10:15;101701.06;;;15.74;100.00
62708;BME280;48769;51.624;5.886;2022-07-23T04:12:40;101704.66;;;15.73;100.00
62708;BME280;48769;51.624;5.886;2022-07-23T04:15:07;101701.06;;;15.74;100.00
62708;BME280;48769;51.624;5.886;2022-07-23T04:17:33;101702.78;;;15.75;100.00
62708;BME280;48769;51.624;5.886;2022-07-23T04:19:58;101708.88;;;15.77;100.00
62708;BME280;48769;51.624;5.886;2022-07-23T04:22:23;101707.06;;;15.77;100.00
62708;BME280;48769;51.624;5.886;2022-07-23T04:24:49;101704.47;;;15.76;100.00
62708;BME280;48769;51.624;5.886;2022-07-23T04:27:15;101707.94;;;15.78;100.00
62708;BME280;48769;51.624;5.886;2022-07-23T04:29:41;101703.56;;;15.77;100.00
62708;BME280;48769;51.624;5.886;2022-07-23T04:32:06;101705.25;;;15.78;100.00
62708;BME280;48769;51.624;5.886;2022-07-23T04:34:31;101703.38;;;15.80;100.00
62708;BME280;48769;51.624;5.886;2022-07-23T04:36:57;101714.03;;;15.80;100.00
62708;BME280;48769;51.624;5.886;2022-07-23T04:39:22;101707.56;;;15.84;100.00
62708;BME280;48769;51.624;5.886;2022-07-23T04:41:47;101720.72;;;15.87;100.00
62708;BME280;48769;51.624;5.886;2022-07-23T04:44:13;101727.56;;;15.91;100.00
62708;BME280;48769;51.624;5.886;2022-07-23T04:46:38;101723.84;;;15.94;100.00
62708;BME280;48769;51.624;5.886;2022-07-23T04:49:04;101729.84;;;15.97;100.00
62708;BME280;48769;51.624;5.886;2022-07-23T04:51:29;101721.88;;;15.97;100.00
62708;BME280;48769;51.624;5.886;2022-07-23T04:53:55;101732.94;;;16.05;100.00
62708;BME280;48769;51.624;5.886;2022-07-23T04:56:20;101725.69;;;16.07;100.00
62708;BME280;48769;51.624;5.886;2022-07-23T04:58:45;101732.34;;;16.15;100.00
62708;BME280;48769;51.624;5.886;2022-07-23T05:01:11;101739.06;;;16.22;100.00
62708;BME280;48769;51.624;5.886;2022-07-23T05:03:36;101741.91;;;16.33;100.00
62708;BME280;48769;51.624;5.886;2022-07-23T05:06:01;101735.03;;;16.43;100.00
62708;BME280;48769;51.624;5.886;2022-07-23T05:08:28;101734.66;;;16.49;100.00
62708;BME280;48769;51.624;5.886;2022-07-23T05:10:53;101732.56;;;16.69;100.00
62708;BME280;48769;51.624;5.886;2022-07-23T05:13:19;101739.78;;;17.10;100.00
62708;BME280;48769;51.624;5.886;2022-07-23T05:15:44;101737.91;;;17.51;100.00
62708;BME280;48769;51.624;5.886;2022-07-23T05:18:10;101735.47;;;17.88;100.00
62708;BME280;48769;51.624;5.886;2022-07-23T05:20:36;101742.56;;;18.15;100.00
62708;BME280;48769;51.624;5.886;2022-07-23T05:23:01;101742.78;;;18.37;100.00
62708;BME280;48769;51.624;5.886;2022-07-23T05:25:27;101732.69;;;18.54;100.00
62708;BME280;48769;51.624;5.886;2022-07-23T05:27:52;101742.78;;;18.76;100.00
62708;BME280;48769;51.624;5.886;2022-07-23T05:30:18;101738.66;;;18.96;100.00
62708;BME280;48769;51.624;5.886;2022-07-23T05:32:43;101742.94;;;19.22;100.00
62708;BME280;48769;51.624;5.886;2022-07-23T05:35:09;101747.59;;;19.44;100.00
62708;BME280;48769;51.624;5.886;2022-07-23T05:37:34;101745.56;;;19.59;100.00
62708;BME280;48769;51.624;5.886;2022-07-23T05:40:05;101754.03;;;19.66;100.00
62708;BME280;48769;51.624;5.886;2022-07-23T05:42:32;101762.16;;;19.88;100.00
62708;BME280;48769;51.624;5.886;2022-07-23T05:44:58;101757.78;;;19.87;100.00
62708;BME280;48769;51.624;5.886;2022-07-23T05:47:23;101760.84;;;19.94;100.00
62708;BME280;48769;51.624;5.886;2022-07-23T05:49:49;101763.09;;;20.22;99.71
62708;BME280;48769;51.624;5.886;2022-07-23T05:52:14;101761.47;;;20.55;98.17
62708;BME280;48769;51.624;5.886;2022-07-23T05:54:39;101752.78;;;20.63;96.20
62708;BME280;48769;51.624;5.886;2022-07-23T05:57:05;101750.25;;;20.61;94.91
62708;BME280;48769;51.624;5.886;2022-07-23T05:59:30;101754.25;;;20.67;93.96
62708;BME280;48769;51.624;5.886;2022-07-23T06:01:56;101763.53;;;20.96;94.13
62708;BME280;48769;51.624;5.886;2022-07-23T06:04:21;101760.75;;;21.30;93.08
62708;BME280;48769;51.624;5.886;2022-07-23T06:06:46;101762.09;;;21.47;92.40
62708;BME280;48769;51.624;5.886;2022-07-23T06:09:12;101762.72;;;21.72;91.75
62708;BME280;48769;51.624;5.886;2022-07-23T06:11:39;101754.88;;;22.01;87.87
62708;BME280;48769;51.624;5.886;2022-07-23T06:14:04;101758.69;;;22.19;88.36
62708;BME280;48769;51.624;5.886;2022-07-23T06:16:29;101754.84;;;22.33;87.22
62708;BME280;48769;51.624;5.886;2022-07-23T06:18:55;101756.09;;;22.59;86.63
62708;BME280;48769;51.624;5.886;2022-07-23T06:21:20;101746.34;;;22.78;86.09
62708;BME280;48769;51.624;5.886;2022-07-23T06:23:45;101761.44;;;22.90;85.69
62708;BME280;48769;51.624;5.886;2022-07-23T06:26:11;101751.47;;;23.12;83.86
62708;BME280;48769;51.624;5.886;2022-07-23T06:28:36;101752.44;;;23.10;82.49
62708;BME280;48769;51.624;5.886;2022-07-23T06:31:01;101751.84;;;22.97;81.26
62708;BME280;48769;51.624;5.886;2022-07-23T06:33:27;101758.03;;;23.38;80.66
62708;BME280;48769;51.624;5.886;2022-07-23T06:35:52;101748.25;;;23.47;79.82
62708;BME280;48769;51.624;5.886;2022-07-23T06:38:17;101749.38;;;23.44;81.07
62708;BME280;48769;51.624;5.886;2022-07-23T06:40:43;101764.88;;;23.71;81.13
62708;BME280;48769;51.624;5.886;2022-07-23T06:43:10;101760.03;;;23.94;80.23
62708;BME280;48769;51.624;5.886;2022-07-23T06:45:35;101759.88;;;24.15;79.71
62708;BME280;48769;51.624;5.886;2022-07-23T06:48:01;101754.72;;;24.41;77.04
62708;BME280;48769;51.624;5.886;2022-07-23T06:50:28;101746.28;;;24.54;73.73
62708;BME280;48769;51.624;5.886;2022-07-23T06:52:53;101746.50;;;24.70;74.08
62708;BME280;48769;51.624;5.886;2022-07-23T06:55:19;101759.44;;;24.10;74.10
62708;BME280;48769;51.624;5.886;2022-07-23T06:57:44;101757.75;;;23.61;75.09
62708;BME280;48769;51.624;5.886;2022-07-23T07:00:10;101754.63;;;23.94;73.67
62708;BME280;48769;51.624;5.886;2022-07-23T07:02:36;101750.84;;;24.54;72.62
62708;BME280;48769;51.624;5.886;2022-07-23T07:05:02;101753.13;;;24.76;70.41
62708;BME280;48769;51.624;5.886;2022-07-23T07:07:27;101757.16;;;25.00;71.04
62708;BME280;48769;51.624;5.886;2022-07-23T07:09:53;101760.47;;;25.11;71.75
62708;BME280;48769;51.624;5.886;2022-07-23T07:12:18;101751.22;;;24.96;70.65
62708;BME280;48769;51.624;5.886;2022-07-23T07:14:43;101753.44;;;24.26;73.65
62708;BME280;48769;51.624;5.886;2022-07-23T07:17:08;101747.13;;;24.55;74.21
62708;BME280;48769;51.624;5.886;2022-07-23T07:19:35;101755.53;;;25.34;71.78
62708;BME280;48769;51.624;5.886;2022-07-23T07:22:01;101749.03;;;25.99;67.41
62708;BME280;48769;51.624;5.886;2022-07-23T07:24:26;101750.84;;;26.42;66.38
62708;BME280;48769;51.624;5.886;2022-07-23T07:26:52;101744.81;;;26.91;64.55
62708;BME280;48769;51.624;5.886;2022-07-23T07:29:17;101740.56;;;27.31;63.54
62708;BME280;48769;51.624;5.886;2022-07-23T07:31:43;101733.25;;;26.80;60.59
62708;BME280;48769;51.624;5.886;2022-07-23T07:34:08;101744.84;;;27.07;61.36
62708;BME280;48769;51.624;5.886;2022-07-23T07:36:33;101746.34;;;27.44;60.24
62708;BME280;48769;51.624;5.886;2022-07-23T07:39:00;101745.34;;;27.86;60.36
62708;BME280;48769;51.624;5.886;2022-07-23T07:41:25;101740.22;;;27.74;57.78
62708;BME280;48769;51.624;5.886;2022-07-23T07:43:51;101747.22;;;26.33;60.28
62708;BME280;48769;51.624;5.886;2022-07-23T07:46:16;101753.56;;;24.81;65.18
62708;BME280;48769;51.624;5.886;2022-07-23T07:48:42;101761.53;;;24.45;66.95
62708;BME280;48769;51.624;5.886;2022-07-23T07:51:07;101767.69;;;24.18;70.26
62708;BME280;48769;51.624;5.886;2022-07-23T07:53:32;101765.28;;;24.06;70.21
62708;BME280;48769;51.624;5.886;2022-07-23T07:55:58;101756.63;;;23.53;70.51
62708;BME280;48769;51.624;5.886;2022-07-23T07:58:23;101767.13;;;23.37;70.12
62708;BME280;48769;51.624;5.886;2022-07-23T08:00:49;101767.81;;;23.29;71.08
62708;BME280;48769;51.624;5.886;2022-07-23T08:03:14;101771.34;;;23.30;72.15
62708;BME280;48769;51.624;5.886;2022-07-23T08:05:39;101784.13;;;23.28;73.19
62708;BME280;48769;51.624;5.886;2022-07-23T08:08:05;101778.88;;;23.36;72.48
62708;BME280;48769;51.624;5.886;2022-07-23T08:10:31;101775.91;;;23.39;71.11
62708;BME280;48769;51.624;5.886;2022-07-23T08:12:57;101773.75;;;23.33;72.52
62708;BME280;48769;51.624;5.886;2022-07-23T08:15:25;101769.66;;;23.29;71.22
62708;BME280;48769;51.624;5.886;2022-07-23T08:17:51;101773.34;;;23.28;71.12
62708;BME280;48769;51.624;5.886;2022-07-23T08:20:19;101776.88;;;23.28;70.34
62708;BME280;48769;51.624;5.886;2022-07-23T08:22:53;101790.22;;;23.30;73.45
62708;BME280;48769;51.624;5.886;2022-07-23T08:25:22;101790.97;;;23.42;75.02
62708;BME280;48769;51.624;5.886;2022-07-23T08:27:50;101786.84;;;23.47;72.05
62708;BME280;48769;51.624;5.886;2022-07-23T08:30:15;101777.91;;;23.27;69.68
62708;BME280;48769;51.624;5.886;2022-07-23T08:35:17;101786.97;;;23.36;69.64
62708;BME280;48769;51.624;5.886;2022-07-23T08:37:42;101788.38;;;23.21;70.53
62708;BME280;48769;51.624;5.886;2022-07-23T08:40:08;101796.06;;;23.35;71.50
62708;BME280;48769;51.624;5.886;2022-07-23T08:42:35;101788.84;;;23.45;71.94
62708;BME280;48769;51.624;5.886;2022-07-23T08:45:02;101799.50;;;23.56;73.23
62708;BME280;48769;51.624;5.886;2022-07-23T08:47:27;101791.69;;;23.53;71.87
62708;BME280;48769;51.624;5.886;2022-07-23T08:49:53;101798.63;;;23.66;70.92
62708;BME280;48769;51.624;5.886;2022-07-23T08:52:20;101789.16;;;23.71;69.59
62708;BME280;48769;51.624;5.886;2022-07-23T08:54:45;101792.16;;;23.68;68.64
62708;BME280;48769;51.624;5.886;2022-07-23T08:57:11;101793.22;;;23.56;70.07
62708;BME280;48769;51.624;5.886;2022-07-23T08:59:36;101798.38;;;23.69;70.27
62708;BME280;48769;51.624;5.886;2022-07-23T09:02:01;101799.84;;;23.73;70.48
62708;BME280;48769;51.624;5.886;2022-07-23T09:04:27;101800.13;;;23.89;71.73
62708;BME280;48769;51.624;5.886;2022-07-23T09:06:52;101800.69;;;23.93;70.47
62708;BME280;48769;51.624;5.886;2022-07-23T09:09:19;101806.47;;;24.08;72.11
62708;BME280;48769;51.624;5.886;2022-07-23T09:11:46;101791.44;;;23.95;68.40
62708;BME280;48769;51.624;5.886;2022-07-23T09:14:12;101804.94;;;23.95;71.10
62708;BME280;48769;51.624;5.886;2022-07-23T09:16:37;101790.44;;;23.96;69.42
62708;BME280;48769;51.624;5.886;2022-07-23T09:19:05;101806.19;;;24.11;70.93
62708;BME280;48769;51.624;5.886;2022-07-23T09:21:33;101809.16;;;24.17;70.86
62708;BME280;48769;51.624;5.886;2022-07-23T09:24:04;101803.22;;;23.94;69.23
62708;BME280;48769;51.624;5.886;2022-07-23T09:29:11;101791.00;;;23.71;66.89
62708;BME280;48769;51.624;5.886;2022-07-23T09:31:49;101796.94;;;23.65;68.97
62708;BME280;48769;51.624;5.886;2022-07-23T09:34:16;101798.50;;;23.48;69.25
62708;BME280;48769;51.624;5.886;2022-07-23T09:36:42;101796.25;;;23.63;70.30
62708;BME280;48769;51.624;5.886;2022-07-23T09:39:09;101796.81;;;23.66;68.43
62708;BME280;48769;51.624;5.886;2022-07-23T09:41:37;101798.09;;;23.72;69.09
62708;BME280;48769;51.624;5.886;2022-07-23T09:44:08;101799.91;;;23.62;69.18
62708;BME280;48769;51.624;5.886;2022-07-23T09:46:35;101798.38;;;23.69;68.71
62708;BME280;48769;51.624;5.886;2022-07-23T09:49:10;101789.88;;;23.83;67.61
62708;BME280;48769;51.624;5.886;2022-07-23T09:51:57;101799.53;;;23.95;69.61
62708;BME280;48769;51.624;5.886;2022-07-23T09:54:24;101786.16;;;24.03;67.89
62708;BME280;48769;51.624;5.886;2022-07-23T09:56:52;101786.00;;;24.24;67.44
62708;BME280;48769;51.624;5.886;2022-07-23T09:59:18;101788.59;;;24.07;66.90
62708;BME280;48769;51.624;5.886;2022-07-23T10:01:47;101781.91;;;23.91;67.41
62708;BME280;48769;51.624;5.886;2022-07-23T10:04:13;101795.00;;;24.06;69.35
62708;BME280;48769;51.624;5.886;2022-07-23T10:06:40;101794.97;;;24.25;68.58
62708;BME280;48769;51.624;5.886;2022-07-23T10:09:12;101800.19;;;24.36;68.52
62708;BME280;48769;51.624;5.886;2022-07-23T10:11:37;101790.22;;;24.37;64.92
62708;BME280;48769;51.624;5.886;2022-07-23T10:14:03;101786.00;;;24.44;66.31
62708;BME280;48769;51.624;5.886;2022-07-23T10:16:30;101784.69;;;24.48;64.59
62708;BME280;48769;51.624;5.886;2022-07-23T10:18:56;101787.94;;;24.52;64.62
62708;BME280;48769;51.624;5.886;2022-07-23T10:21:34;101777.16;;;24.52;61.97
62708;BME280;48769;51.624;5.886;2022-07-23T10:30:06;101786.66;;;24.36;64.93
62708;BME280;48769;51.624;5.886;2022-07-23T10:35:33;101788.72;;;23.66;64.31
62708;BME280;48769;51.624;5.886;2022-07-23T10:38:11;101778.38;;;23.81;63.96
62708;BME280;48769;51.624;5.886;2022-07-23T10:40:53;101790.44;;;23.87;66.81
62708;BME280;48769;51.624;5.886;2022-07-23T10:43:20;101783.91;;;23.89;66.00
62708;BME280;48769;51.624;5.886;2022-07-23T10:45:45;101789.31;;;24.09;67.23
62708;BME280;48769;51.624;5.886;2022-07-23T10:48:17;101793.38;;;24.32;69.48
62708;BME280;48769;51.624;5.886;2022-07-23T10:50:43;101781.25;;;24.56;65.91
62708;BME280;48769;51.624;5.886;2022-07-23T10:53:14;101783.25;;;24.54;66.36
62708;BME280;48769;51.624;5.886;2022-07-23T10:56:07;101781.41;;;24.54;68.20
62708;BME280;48769;51.624;5.886;2022-07-23T10:58:52;101786.66;;;24.36;66.79
62708;BME280;48769;51.624;5.886;2022-07-23T11:01:36;101780.97;;;24.49;64.42
62708;BME280;48769;51.624;5.886;2022-07-23T11:04:02;101787.78;;;24.53;68.03
62708;BME280;48769;51.624;5.886;2022-07-23T11:09:30;101781.66;;;24.61;66.53
62708;BME280;48769;51.624;5.886;2022-07-23T11:15:03;101779.91;;;24.69;62.72
62708;BME280;48769;51.624;5.886;2022-07-23T11:17:31;101774.91;;;24.75;62.25
62708;BME280;48769;51.624;5.886;2022-07-23T11:25:30;101762.06;;;24.86;57.94
62708;BME280;48769;51.624;5.886;2022-07-23T11:28:19;101773.09;;;25.03;59.08
62708;BME280;48769;51.624;5.886;2022-07-23T11:30:51;101784.16;;;25.09;61.93
62708;BME280;48769;51.624;5.886;2022-07-23T11:33:18;101776.88;;;25.10;61.11
62708;BME280;48769;51.624;5.886;2022-07-23T11:35:50;101772.59;;;24.89;60.87
62708;BME280;48769;51.624;5.886;2022-07-23T11:38:24;101776.31;;;24.79;62.69
62708;BME280;48769;51.624;5.886;2022-07-23T11:40:52;101787.28;;;25.05;64.51
62708;BME280;48769;51.624;5.886;2022-07-23T11:43:18;101779.84;;;25.16;63.66
62708;BME280;48769;51.624;5.886;2022-07-23T11:45:46;101777.53;;;25.22;63.49
62708;BME280;48769;51.624;5.886;2022-07-23T11:48:19;101774.59;;;25.15;63.25
62708;BME280;48769;51.624;5.886;2022-07-23T11:50:44;101769.22;;;25.33;63.80
62708;BME280;48769;51.624;5.886;2022-07-23T11:53:10;101768.59;;;25.39;63.34
62708;BME280;48769;51.624;5.886;2022-07-23T11:55:35;101774.56;;;25.42;63.15
62708;BME280;48769;51.624;5.886;2022-07-23T11:58:04;101769.75;;;25.54;59.83
62708;BME280;48769;51.624;5.886;2022-07-23T12:00:30;101757.56;;;25.32;58.17
62708;BME280;48769;51.624;5.886;2022-07-23T12:02:59;101764.59;;;25.43;60.11
62708;BME280;48769;51.624;5.886;2022-07-23T12:05:31;101770.22;;;25.50;61.31
62708;BME280;48769;51.624;5.886;2022-07-23T12:07:57;101767.47;;;25.41;61.64
62708;BME280;48769;51.624;5.886;2022-07-23T12:10:50;101757.47;;;25.42;59.14
62708;BME280;48769;51.624;5.886;2022-07-23T12:13:19;101769.91;;;25.53;61.18
62708;BME280;48769;51.624;5.886;2022-07-23T12:15:50;101764.75;;;25.41;60.20
62708;BME280;48769;51.624;5.886;2022-07-23T12:18:19;101761.09;;;25.51;61.40
62708;BME280;48769;51.624;5.886;2022-07-23T12:20:47;101763.88;;;25.59;62.19
62708;BME280;48769;51.624;5.886;2022-07-23T12:23:15;101769.84;;;25.80;62.23
62708;BME280;48769;51.624;5.886;2022-07-23T12:25:43;101768.25;;;25.87;60.62
62708;BME280;48769;51.624;5.886;2022-07-23T12:28:16;101765.25;;;25.99;60.70
62708;BME280;48769;51.624;5.886;2022-07-23T12:33:20;101750.44;;;25.85;56.85
62708;BME280;48769;51.624;5.886;2022-07-23T12:35:48;101746.88;;;25.49;57.41
62708;BME280;48769;51.624;5.886;2022-07-23T12:38:16;101756.06;;;25.20;57.98
62708;BME280;48769;51.624;5.886;2022-07-23T12:40:45;101756.78;;;25.58;59.09
62708;BME280;48769;51.624;5.886;2022-07-23T12:43:25;101753.53;;;25.72;60.10
62708;BME280;48769;51.624;5.886;2022-07-23T12:46:04;101741.22;;;25.60;56.91
62708;BME280;48769;51.624;5.886;2022-07-23T12:48:31;101758.31;;;25.78;60.89
62708;BME280;48769;51.624;5.886;2022-07-23T12:53:36;101746.59;;;25.87;59.25
62708;BME280;48769;51.624;5.886;2022-07-23T12:56:06;101751.28;;;26.03;59.30
62708;BME280;48769;51.624;5.886;2022-07-23T13:04:04;101729.16;;;26.42;55.79
62708;BME280;48769;51.624;5.886;2022-07-23T13:06:33;101738.19;;;26.51;57.27
62708;BME280;48769;51.624;5.886;2022-07-23T13:08:59;101732.78;;;26.51;58.00
62708;BME280;48769;51.624;5.886;2022-07-23T13:11:25;101727.03;;;26.54;56.08
62708;BME280;48769;51.624;5.886;2022-07-23T13:13:50;101720.28;;;26.58;56.02
62708;BME280;48769;51.624;5.886;2022-07-23T13:16:16;101722.50;;;26.63;55.02
62708;BME280;48769;51.624;5.886;2022-07-23T13:18:42;101727.75;;;26.64;55.59